sensor_id;sensor_type;location;lat;lon;timestamp;temperature;humidity
27224;DHT22;14965;50.660;13.226;2022-12-18T00:01:29;-9.30;99.90
27224;DHT22;14965;50.660;13.226;2022-12-18T00:03:56;-9.30;99.90
27224;DHT22;14965;50.660;13.226;2022-12-18T00:06:24;-9.30;99.90
27224;DHT22;14965;50.660;13.226;2022-12-18T00:08:54;-9.30;99.90
27224;DHT22;14965;50.660;13.226;2022-12-18T00:11:23;-9.30;99.90
27224;DHT22;14965;50.660;13.226;2022-12-18T00:13:51;-9.30;99.90
27224;DHT22;14965;50.660;13.226;2022-12-18T00:16:21;-9.40;99.90
27224;DHT22;14965;50.660;13.226;2022-12-18T00:18:49;-9.50;99.90
27224;DHT22;14965;50.660;13.226;2022-12-18T00:21:17;-9.50;99.90
27224;DHT22;14965;50.660;13.226;2022-12-18T00:23:46;-9.50;99.90
27224;DHT22;14965;50.660;13.226;2022-12-18T00:26:17;-9.50;99.90
27224;DHT22;14965;50.660;13.226;2022-12-18T00:28:45;-9.50;99.90
27224;DHT22;14965;50.660;13.226;2022-12-18T00:31:14;-9.60;99.90
27224;DHT22;14965;50.660;13.226;2022-12-18T00:33:41;-9.60;99.90
27224;DHT22;14965;50.660;13.226;2022-12-18T00:36:10;-9.70;99.90
27224;DHT22;14965;50.660;13.226;2022-12-18T00:38:39;-9.70;99.90
27224;DHT22;14965;50.660;13.226;2022-12-18T00:41:06;-9.80;99.90
27224;DHT22;14965;50.660;13.226;2022-12-18T00:43:35;-9.80;99.90
27224;DHT22;14965;50.660;13.226;2022-12-18T00:46:01;-9.80;99.90
27224;DHT22;14965;50.660;13.226;2022-12-18T00:48:28;-9.70;99.90
27224;DHT22;14965;50.660;13.226;2022-12-18T00:50:54;-9.70;99.90
27224;DHT22;14965;50.660;13.226;2022-12-18T00:53:20;-9.70;99.90
27224;DHT22;14965;50.660;13.226;2022-12-18T00:55:46;-9.70;99.90
27224;DHT22;14965;50.660;13.226;2022-12-18T00:58:14;-9.70;99.90
27224;DHT22;14965;50.660;13.226;2022-12-18T01:00:43;-9.70;99.90
27224;DHT22;14965;50.660;13.226;2022-12-18T01:03:10;-9.80;99.90
27224;DHT22;14965;50.660;13.226;2022-12-18T01:05:39;-9.80;99.90
27224;DHT22;14965;50.660;13.226;2022-12-18T01:08:06;-9.90;99.90
27224;DHT22;14965;50.660;13.226;2022-12-18T01:10:32;-9.90;99.90
27224;DHT22;14965;50.660;13.226;2022-12-18T01:12:58;-9.90;99.90
27224;DHT22;14965;50.660;13.226;2022-12-18T01:15:24;-9.90;99.90
27224;DHT22;14965;50.660;13.226;2022-12-18T01:17:53;-9.90;99.90
27224;DHT22;14965;50.660;13.226;2022-12-18T01:20:19;-9.90;99.90
27224;DHT22;14965;50.660;13.226;2022-12-18T01:22:45;-9.90;99.90
27224;DHT22;14965;50.660;13.226;2022-12-18T01:25:11;-9.80;99.90
27224;DHT22;14965;50.660;13.226;2022-12-18T01:27:37;-9.80;99.90
27224;DHT22;14965;50.660;13.226;2022-12-18T01:30:04;-9.90;99.90
27224;DHT22;14965;50.660;13.226;2022-12-18T01:32:31;-9.90;99.90
27224;DHT22;14965;50.660;13.226;2022-12-18T01:34:59;-9.90;99.90
27224;DHT22;14965;50.660;13.226;2022-12-18T01:37:25;-9.90;99.90
27224;DHT22;14965;50.660;13.226;2022-12-18T01:39:52;-10.00;99.90
27224;DHT22;14965;50.660;13.226;2022-12-18T01:42:18;-10.00;99.90
27224;DHT22;14965;50.660;13.226;2022-12-18T01:45:06;-10.00;99.90
27224;DHT22;14965;50.660;13.226;2022-12-18T01:47:50;-10.10;99.90
27224;DHT22;14965;50.660;13.226;2022-12-18T01:50:22;-10.10;99.90
27224;DHT22;14965;50.660;13.226;2022-12-18T01:52:53;-10.00;99.90
27224;DHT22;14965;50.660;13.226;2022-12-18T01:55:24;-10.10;99.90
27224;DHT22;14965;50.660;13.226;2022-12-18T01:57:55;-10.10;99.90
27224;DHT22;14965;50.660;13.226;2022-12-18T02:00:25;-10.00;99.90
27224;DHT22;14965;50.660;13.226;2022-12-18T02:02:53;-10.00;99.90
27224;DHT22;14965;50.660;13.226;2022-12-18T02:05:31;-10.10;99.90
27224;DHT22;14965;50.660;13.226;2022-12-18T02:08:10;-10.10;99.90
27224;DHT22;14965;50.660;13.226;2022-12-18T02:10:47;-10.10;99.90
27224;DHT22;14965;50.660;13.226;2022-12-18T02:13:20;-10.20;99.90
27224;DHT22;14965;50.660;13.226;2022-12-18T02:15:59;-10.20;99.90
27224;DHT22;14965;50.660;13.226;2022-12-18T02:18:33;-10.20;99.90
27224;DHT22;14965;50.660;13.226;2022-12-18T02:21:08;-10.20;99.90
27224;DHT22;14965;50.660;13.226;2022-12-18T02:23:52;-10.20;99.90
27224;DHT22;14965;50.660;13.226;2022-12-18T02:26:27;-10.30;99.90
27224;DHT22;14965;50.660;13.226;2022-12-18T02:29:02;-10.30;99.90
27224;DHT22;14965;50.660;13.226;2022-12-18T02:31:35;-10.30;99.90
27224;DHT22;14965;50.660;13.226;2022-12-18T02:34:06;-10.40;99.90
27224;DHT22;14965;50.660;13.226;2022-12-18T02:36:36;-10.40;99.90
27224;DHT22;14965;50.660;13.226;2022-12-18T02:39:09;-10.40;99.90
27224;DHT22;14965;50.660;13.226;2022-12-18T02:41:39;-10.50;99.90
27224;DHT22;14965;50.660;13.226;2022-12-18T02:44:08;-10.50;99.90
27224;DHT22;14965;50.660;13.226;2022-12-18T02:46:38;-10.40;99.90
27224;DHT22;14965;50.660;13.226;2022-12-18T02:49:14;-10.50;99.90
27224;DHT22;14965;50.660;13.226;2022-12-18T02:51:53;-10.50;99.90
27224;DHT22;14965;50.660;13.226;2022-12-18T02:54:30;-10.60;99.90
27224;DHT22;14965;50.660;13.226;2022-12-18T02:57:10;-10.60;99.90
27224;DHT22;14965;50.660;13.226;2022-12-18T02:59:47;-10.60;99.90
27224;DHT22;14965;50.660;13.226;2022-12-18T03:02:24;-10.70;99.90
27224;DHT22;14965;50.660;13.226;2022-12-18T03:04:59;-10.70;99.90
27224;DHT22;14965;50.660;13.226;2022-12-18T03:07:36;-10.70;99.90
27224;DHT22;14965;50.660;13.226;2022-12-18T03:10:11;-10.70;99.90
27224;DHT22;14965;50.660;13.226;2022-12-18T03:12:43;-10.70;99.90
27224;DHT22;14965;50.660;13.226;2022-12-18T03:15:17;-10.70;99.90
27224;DHT22;14965;50.660;13.226;2022-12-18T03:17:52;-10.80;99.90
27224;DHT22;14965;50.660;13.226;2022-12-18T03:20:26;-10.80;99.90
27224;DHT22;14965;50.660;13.226;2022-12-18T03:23:01;-10.80;99.90
27224;DHT22;14965;50.660;13.226;2022-12-18T03:25:33;-10.80;99.90
27224;DHT22;14965;50.660;13.226;2022-12-18T03:28:07;-10.80;99.90
27224;DHT22;14965;50.660;13.226;2022-12-18T03:30:38;-10.80;99.90
27224;DHT22;14965;50.660;13.226;2022-12-18T03:33:10;-10.80;99.90
27224;DHT22;14965;50.660;13.226;2022-12-18T03:35:42;-10.80;99.90
27224;DHT22;14965;50.660;13.226;2022-12-18T03:38:09;-10.80;99.90
27224;DHT22;14965;50.660;13.226;2022-12-18T03:40:44;-10.70;99.90
27224;DHT22;14965;50.660;13.226;2022-12-18T03:43:22;-10.80;99.90
27224;DHT22;14965;50.660;13.226;2022-12-18T03:46:02;-10.80;99.90
27224;DHT22;14965;50.660;13.226;2022-12-18T03:48:37;-10.80;99.90
27224;DHT22;14965;50.660;13.226;2022-12-18T03:51:14;-10.80;99.90
27224;DHT22;14965;50.660;13.226;2022-12-18T03:53:47;-10.70;99.90
27224;DHT22;14965;50.660;13.226;2022-12-18T03:56:21;-10.70;99.90
27224;DHT22;14965;50.660;13.226;2022-12-18T03:58:52;-10.80;99.90
27224;DHT22;14965;50.660;13.226;2022-12-18T04:01:25;-10.80;99.90
27224;DHT22;14965;50.660;13.226;2022-12-18T04:03:56;-10.80;99.90
27224;DHT22;14965;50.660;13.226;2022-12-18T04:06:25;-10.80;99.90
27224;DHT22;14965;50.660;13.226;2022-12-18T04:08:53;-10.80;99.90
27224;DHT22;14965;50.660;13.226;2022-12-18T04:11:19;-10.80;99.90
27224;DHT22;14965;50.660;13.226;2022-12-18T04:13:45;-10.90;99.90
27224;DHT22;14965;50.660;13.226;2022-12-18T04:16:12;-10.80;99.90
27224;DHT22;14965;50.660;13.226;2022-12-18T04:18:38;-10.80;99.90
27224;DHT22;14965;50.660;13.226;2022-12-18T04:21:04;-10.80;99.90
27224;DHT22;14965;50.660;13.226;2022-12-18T04:23:30;-10.90;99.90
27224;DHT22;14965;50.660;13.226;2022-12-18T04:25:56;-10.80;99.90
27224;DHT22;14965;50.660;13.226;2022-12-18T04:28:22;-10.80;99.90
27224;DHT22;14965;50.660;13.226;2022-12-18T04:30:49;-10.80;99.90
27224;DHT22;14965;50.660;13.226;2022-12-18T04:33:16;-10.70;99.90
27224;DHT22;14965;50.660;13.226;2022-12-18T04:35:42;-10.70;99.90
27224;DHT22;14965;50.660;13.226;2022-12-18T04:38:09;-10.70;99.90
27224;DHT22;14965;50.660;13.226;2022-12-18T04:40:35;-10.80;99.90
27224;DHT22;14965;50.660;13.226;2022-12-18T04:43:02;-10.80;99.90
27224;DHT22;14965;50.660;13.226;2022-12-18T04:45:29;-10.80;99.90
27224;DHT22;14965;50.660;13.226;2022-12-18T04:47:57;-10.80;99.90
27224;DHT22;14965;50.660;13.226;2022-12-18T04:50:24;-10.80;99.90
27224;DHT22;14965;50.660;13.226;2022-12-18T04:52:50;-10.90;99.90
27224;DHT22;14965;50.660;13.226;2022-12-18T04:55:16;-10.80;99.90
27224;DHT22;14965;50.660;13.226;2022-12-18T04:57:42;-10.90;99.90
27224;DHT22;14965;50.660;13.226;2022-12-18T05:00:09;-11.00;99.90
27224;DHT22;14965;50.660;13.226;2022-12-18T05:02:36;-10.90;99.90
27224;DHT22;14965;50.660;13.226;2022-12-18T05:05:02;-11.00;99.90
27224;DHT22;14965;50.660;13.226;2022-12-18T05:07:30;-10.90;99.90
27224;DHT22;14965;50.660;13.226;2022-12-18T05:09:56;-11.00;99.90
27224;DHT22;14965;50.660;13.226;2022-12-18T05:12:22;-10.90;99.90
27224;DHT22;14965;50.660;13.226;2022-12-18T05:14:47;-10.90;99.90
27224;DHT22;14965;50.660;13.226;2022-12-18T05:17:13;-10.80;99.90
27224;DHT22;14965;50.660;13.226;2022-12-18T05:19:39;-10.60;99.90
27224;DHT22;14965;50.660;13.226;2022-12-18T05:22:05;-10.60;99.90
27224;DHT22;14965;50.660;13.226;2022-12-18T05:24:32;-10.50;99.90
27224;DHT22;14965;50.660;13.226;2022-12-18T05:26:58;-10.30;99.90
27224;DHT22;14965;50.660;13.226;2022-12-18T05:29:25;-10.10;99.90
27224;DHT22;14965;50.660;13.226;2022-12-18T05:31:51;-10.10;99.90
27224;DHT22;14965;50.660;13.226;2022-12-18T05:34:17;-10.00;99.90
27224;DHT22;14965;50.660;13.226;2022-12-18T05:36:43;-10.10;99.90
27224;DHT22;14965;50.660;13.226;2022-12-18T05:39:08;-10.00;99.90
27224;DHT22;14965;50.660;13.226;2022-12-18T05:41:36;-9.70;99.90
27224;DHT22;14965;50.660;13.226;2022-12-18T05:44:02;-9.30;99.90
27224;DHT22;14965;50.660;13.226;2022-12-18T05:46:28;-9.10;99.90
27224;DHT22;14965;50.660;13.226;2022-12-18T05:48:54;-8.80;99.90
27224;DHT22;14965;50.660;13.226;2022-12-18T05:51:21;-8.60;99.90
27224;DHT22;14965;50.660;13.226;2022-12-18T05:53:47;-8.50;99.90
27224;DHT22;14965;50.660;13.226;2022-12-18T05:56:15;-8.40;99.90
27224;DHT22;14965;50.660;13.226;2022-12-18T05:58:45;-8.40;99.90
27224;DHT22;14965;50.660;13.226;2022-12-18T06:01:13;-8.30;99.90
27224;DHT22;14965;50.660;13.226;2022-12-18T06:03:40;-8.20;99.90
27224;DHT22;14965;50.660;13.226;2022-12-18T06:06:13;-8.20;99.90
27224;DHT22;14965;50.660;13.226;2022-12-18T06:08:40;-8.10;99.90
27224;DHT22;14965;50.660;13.226;2022-12-18T06:11:06;-8.10;99.90
27224;DHT22;14965;50.660;13.226;2022-12-18T06:13:32;-8.10;99.90
27224;DHT22;14965;50.660;13.226;2022-12-18T06:16:02;-8.00;99.90
27224;DHT22;14965;50.660;13.226;2022-12-18T06:18:28;-8.00;99.90
27224;DHT22;14965;50.660;13.226;2022-12-18T06:20:55;-8.00;99.90
27224;DHT22;14965;50.660;13.226;2022-12-18T06:23:21;-8.00;99.90
27224;DHT22;14965;50.660;13.226;2022-12-18T06:25:47;-8.00;99.90
27224;DHT22;14965;50.660;13.226;2022-12-18T06:28:13;-8.00;99.90
27224;DHT22;14965;50.660;13.226;2022-12-18T06:30:39;-7.90;99.90
27224;DHT22;14965;50.660;13.226;2022-12-18T06:33:06;-7.80;99.90
27224;DHT22;14965;50.660;13.226;2022-12-18T06:35:32;-7.80;99.90
27224;DHT22;14965;50.660;13.226;2022-12-18T06:37:58;-7.80;99.90
27224;DHT22;14965;50.660;13.226;2022-12-18T06:40:26;-7.70;99.90
27224;DHT22;14965;50.660;13.226;2022-12-18T06:42:52;-7.70;99.90
27224;DHT22;14965;50.660;13.226;2022-12-18T06:45:18;-7.70;99.90
27224;DHT22;14965;50.660;13.226;2022-12-18T06:47:44;-7.60;99.90
27224;DHT22;14965;50.660;13.226;2022-12-18T06:50:12;-7.60;99.90
27224;DHT22;14965;50.660;13.226;2022-12-18T06:52:38;-7.60;99.90
27224;DHT22;14965;50.660;13.226;2022-12-18T06:55:06;-7.60;99.90
27224;DHT22;14965;50.660;13.226;2022-12-18T06:57:32;-7.60;99.90
27224;DHT22;14965;50.660;13.226;2022-12-18T06:59:58;-7.60;99.90
27224;DHT22;14965;50.660;13.226;2022-12-18T07:02:24;-7.60;99.90
27224;DHT22;14965;50.660;13.226;2022-12-18T07:04:50;-7.50;99.90
27224;DHT22;14965;50.660;13.226;2022-12-18T07:07:18;-7.60;99.90
27224;DHT22;14965;50.660;13.226;2022-12-18T07:09:43;-7.50;99.90
27224;DHT22;14965;50.660;13.226;2022-12-18T07:12:09;-7.50;99.90
27224;DHT22;14965;50.660;13.226;2022-12-18T07:14:35;-7.50;99.90
27224;DHT22;14965;50.660;13.226;2022-12-18T07:17:01;-7.50;99.90
27224;DHT22;14965;50.660;13.226;2022-12-18T07:19:29;-7.40;99.90
27224;DHT22;14965;50.660;13.226;2022-12-18T07:21:55;-7.40;99.90
27224;DHT22;14965;50.660;13.226;2022-12-18T07:24:22;-7.40;99.90
27224;DHT22;14965;50.660;13.226;2022-12-18T07:26:48;-7.50;99.90
27224;DHT22;14965;50.660;13.226;2022-12-18T07:29:14;-7.50;99.90
27224;DHT22;14965;50.660;13.226;2022-12-18T07:31:41;-7.50;99.90
27224;DHT22;14965;50.660;13.226;2022-12-18T07:34:10;-7.40;99.90
27224;DHT22;14965;50.660;13.226;2022-12-18T07:36:36;-7.40;99.90
27224;DHT22;14965;50.660;13.226;2022-12-18T07:39:02;-7.30;99.90
27224;DHT22;14965;50.660;13.226;2022-12-18T07:41:29;-7.20;99.90
27224;DHT22;14965;50.660;13.226;2022-12-18T07:43:55;-7.20;99.90
27224;DHT22;14965;50.660;13.226;2022-12-18T07:46:21;-7.20;99.90
27224;DHT22;14965;50.660;13.226;2022-12-18T07:48:47;-7.10;99.90
27224;DHT22;14965;50.660;13.226;2022-12-18T07:51:13;-7.00;99.90
27224;DHT22;14965;50.660;13.226;2022-12-18T07:53:40;-6.90;99.90
27224;DHT22;14965;50.660;13.226;2022-12-18T07:56:08;-6.90;99.90
27224;DHT22;14965;50.660;13.226;2022-12-18T07:58:37;-6.80;99.90
27224;DHT22;14965;50.660;13.226;2022-12-18T08:01:04;-6.60;99.90
27224;DHT22;14965;50.660;13.226;2022-12-18T08:03:32;-6.60;99.90
27224;DHT22;14965;50.660;13.226;2022-12-18T08:05:59;-6.50;99.90
27224;DHT22;14965;50.660;13.226;2022-12-18T08:08:26;-6.50;99.90
27224;DHT22;14965;50.660;13.226;2022-12-18T08:10:52;-6.40;99.90
27224;DHT22;14965;50.660;13.226;2022-12-18T08:13:18;-6.30;99.90
27224;DHT22;14965;50.660;13.226;2022-12-18T08:15:45;-6.30;99.90
27224;DHT22;14965;50.660;13.226;2022-12-18T08:18:11;-6.30;99.90
27224;DHT22;14965;50.660;13.226;2022-12-18T08:20:37;-6.20;99.90
27224;DHT22;14965;50.660;13.226;2022-12-18T08:23:03;-6.20;99.90
27224;DHT22;14965;50.660;13.226;2022-12-18T08:25:29;-6.10;99.90
27224;DHT22;14965;50.660;13.226;2022-12-18T08:27:55;-6.00;99.90
27224;DHT22;14965;50.660;13.226;2022-12-18T08:30:20;-5.90;99.90
27224;DHT22;14965;50.660;13.226;2022-12-18T08:32:51;-5.90;99.90
27224;DHT22;14965;50.660;13.226;2022-12-18T08:35:17;-5.80;99.90
27224;DHT22;14965;50.660;13.226;2022-12-18T08:37:42;-5.80;99.90
27224;DHT22;14965;50.660;13.226;2022-12-18T08:40:09;-5.70;99.90
27224;DHT22;14965;50.660;13.226;2022-12-18T08:42:36;-5.80;99.90
27224;DHT22;14965;50.660;13.226;2022-12-18T08:45:02;-5.80;99.90
27224;DHT22;14965;50.660;13.226;2022-12-18T08:47:29;-5.70;99.90
27224;DHT22;14965;50.660;13.226;2022-12-18T08:49:56;-5.60;99.90
27224;DHT22;14965;50.660;13.226;2022-12-18T08:52:22;-5.60;99.90
27224;DHT22;14965;50.660;13.226;2022-12-18T08:54:48;-5.50;99.90
27224;DHT22;14965;50.660;13.226;2022-12-18T08:57:14;-5.50;99.90
27224;DHT22;14965;50.660;13.226;2022-12-18T08:59:40;-5.40;99.90
27224;DHT22;14965;50.660;13.226;2022-12-18T09:02:06;-5.40;99.90
27224;DHT22;14965;50.660;13.226;2022-12-18T09:04:35;-5.30;99.90
27224;DHT22;14965;50.660;13.226;2022-12-18T09:07:03;-5.30;99.90
27224;DHT22;14965;50.660;13.226;2022-12-18T09:09:28;-5.30;99.90
27224;DHT22;14965;50.660;13.226;2022-12-18T09:11:54;-5.20;99.90
27224;DHT22;14965;50.660;13.226;2022-12-18T09:14:20;-5.10;99.90
27224;DHT22;14965;50.660;13.226;2022-12-18T09:16:46;-5.10;99.90
27224;DHT22;14965;50.660;13.226;2022-12-18T09:19:12;-5.00;99.90
27224;DHT22;14965;50.660;13.226;2022-12-18T09:21:38;-4.90;99.90
27224;DHT22;14965;50.660;13.226;2022-12-18T09:24:08;-4.90;99.90
27224;DHT22;14965;50.660;13.226;2022-12-18T09:26:37;-4.80;99.90
27224;DHT22;14965;50.660;13.226;2022-12-18T09:29:04;-4.80;99.90
27224;DHT22;14965;50.660;13.226;2022-12-18T09:31:30;-4.70;99.90
27224;DHT22;14965;50.660;13.226;2022-12-18T09:33:56;-4.60;99.90
27224;DHT22;14965;50.660;13.226;2022-12-18T09:36:22;-4.50;99.90
27224;DHT22;14965;50.660;13.226;2022-12-18T09:38:48;-4.40;99.90
27224;DHT22;14965;50.660;13.226;2022-12-18T09:44:15;-4.20;99.90
27224;DHT22;14965;50.660;13.226;2022-12-18T09:47:03;-4.20;99.90
27224;DHT22;14965;50.660;13.226;2022-12-18T09:49:52;-4.10;99.90
27224;DHT22;14965;50.660;13.226;2022-12-18T09:52:25;-4.00;99.90
27224;DHT22;14965;50.660;13.226;2022-12-18T09:54:58;-4.00;99.90
27224;DHT22;14965;50.660;13.226;2022-12-18T09:57:31;-3.90;99.90
27224;DHT22;14965;50.660;13.226;2022-12-18T10:00:08;-3.80;99.90
27224;DHT22;14965;50.660;13.226;2022-12-18T10:02:41;-3.70;99.90
27224;DHT22;14965;50.660;13.226;2022-12-18T10:05:11;-3.70;99.90
27224;DHT22;14965;50.660;13.226;2022-12-18T10:07:48;-3.60;99.90
27224;DHT22;14965;50.660;13.226;2022-12-18T10:10:32;-3.60;99.90
27224;DHT22;14965;50.660;13.226;2022-12-18T10:13:12;-3.60;99.90
27224;DHT22;14965;50.660;13.226;2022-12-18T10:18:58;-3.50;99.90
27224;DHT22;14965;50.660;13.226;2022-12-18T10:21:33;-3.50;99.90
27224;DHT22;14965;50.660;13.226;2022-12-18T10:24:15;-3.50;99.90
27224;DHT22;14965;50.660;13.226;2022-12-18T10:26:49;-3.50;99.90
27224;DHT22;14965;50.660;13.226;2022-12-18T10:29:19;-3.50;99.90
27224;DHT22;14965;50.660;13.226;2022-12-18T10:31:45;-3.50;99.90
27224;DHT22;14965;50.660;13.226;2022-12-18T10:34:12;-3.40;99.90
27224;DHT22;14965;50.660;13.226;2022-12-18T10:36:40;-3.30;99.90
27224;DHT22;14965;50.660;13.226;2022-12-18T10:39:17;-3.30;99.90
27224;DHT22;14965;50.660;13.226;2022-12-18T10:41:45;-3.30;99.90
27224;DHT22;14965;50.660;13.226;2022-12-18T10:44:15;-3.20;99.90
27224;DHT22;14965;50.660;13.226;2022-12-18T10:46:45;-3.20;99.90
27224;DHT22;14965;50.660;13.226;2022-12-18T10:49:33;-3.10;99.90
27224;DHT22;14965;50.660;13.226;2022-12-18T10:52:07;-3.10;99.90
27224;DHT22;14965;50.660;13.226;2022-12-18T10:54:39;-3.10;99.90
27224;DHT22;14965;50.660;13.226;2022-12-18T10:57:16;-3.00;99.90
27224;DHT22;14965;50.660;13.226;2022-12-18T10:59:55;-3.00;99.90
27224;DHT22;14965;50.660;13.226;2022-12-18T11:02:34;-2.90;99.90
27224;DHT22;14965;50.660;13.226;2022-12-18T11:05:02;-2.90;99.90
27224;DHT22;14965;50.660;13.226;2022-12-18T11:07:49;-2.80;99.90
27224;DHT22;14965;50.660;13.226;2022-12-18T11:10:17;-2.80;99.90
27224;DHT22;14965;50.660;13.226;2022-12-18T11:12:45;-2.80;99.90
27224;DHT22;14965;50.660;13.226;2022-12-18T11:15:15;-2.70;99.90
27224;DHT22;14965;50.660;13.226;2022-12-18T11:17:47;-2.60;99.90
27224;DHT22;14965;50.660;13.226;2022-12-18T11:20:23;-2.50;99.90
27224;DHT22;14965;50.660;13.226;2022-12-18T11:22:57;-2.50;99.90
27224;DHT22;14965;50.660;13.226;2022-12-18T11:25:25;-2.40;99.90
27224;DHT22;14965;50.660;13.226;2022-12-18T11:27:54;-2.50;99.90
27224;DHT22;14965;50.660;13.226;2022-12-18T11:30:24;-2.50;99.90
27224;DHT22;14965;50.660;13.226;2022-12-18T11:33:04;-2.40;99.90
27224;DHT22;14965;50.660;13.226;2022-12-18T11:35:38;-2.30;99.90
27224;DHT22;14965;50.660;13.226;2022-12-18T11:38:18;-2.30;99.90
27224;DHT22;14965;50.660;13.226;2022-12-18T11:40:51;-2.40;99.90
27224;DHT22;14965;50.660;13.226;2022-12-18T11:43:27;-2.50;99.90
27224;DHT22;14965;50.660;13.226;2022-12-18T11:46:01;-2.50;99.90
27224;DHT22;14965;50.660;13.226;2022-12-18T11:48:34;-2.70;99.90
27224;DHT22;14965;50.660;13.226;2022-12-18T11:51:12;-2.70;99.90
27224;DHT22;14965;50.660;13.226;2022-12-18T11:53:45;-2.80;99.90
27224;DHT22;14965;50.660;13.226;2022-12-18T11:56:26;-2.80;99.90
27224;DHT22;14965;50.660;13.226;2022-12-18T11:59:00;-2.90;99.90
27224;DHT22;14965;50.660;13.226;2022-12-18T12:01:38;-3.10;99.90
27224;DHT22;14965;50.660;13.226;2022-12-18T12:04:33;-3.10;99.90
27224;DHT22;14965;50.660;13.226;2022-12-18T12:07:31;-3.20;99.90
27224;DHT22;14965;50.660;13.226;2022-12-18T12:10:13;-3.10;99.90
27224;DHT22;14965;50.660;13.226;2022-12-18T12:12:57;-3.10;99.90
27224;DHT22;14965;50.660;13.226;2022-12-18T12:15:39;-3.10;99.90
27224;DHT22;14965;50.660;13.226;2022-12-18T12:18:22;-3.20;99.90
27224;DHT22;14965;50.660;13.226;2022-12-18T12:21:05;-3.20;99.90
27224;DHT22;14965;50.660;13.226;2022-12-18T12:23:41;-3.20;99.90
27224;DHT22;14965;50.660;13.226;2022-12-18T12:26:23;-3.20;99.90
27224;DHT22;14965;50.660;13.226;2022-12-18T12:29:04;-3.10;99.90
27224;DHT22;14965;50.660;13.226;2022-12-18T12:31:53;-3.20;99.90
27224;DHT22;14965;50.660;13.226;2022-12-18T12:34:34;-3.10;99.90
27224;DHT22;14965;50.660;13.226;2022-12-18T12:37:20;-3.20;99.90
27224;DHT22;14965;50.660;13.226;2022-12-18T12:39:58;-3.20;99.90
27224;DHT22;14965;50.660;13.226;2022-12-18T12:42:31;-3.10;99.90
27224;DHT22;14965;50.660;13.226;2022-12-18T12:45:05;-3.10;99.90
27224;DHT22;14965;50.660;13.226;2022-12-18T12:47:42;-3.20;99.90
27224;DHT22;14965;50.660;13.226;2022-12-18T12:50:15;-3.20;99.90
27224;DHT22;14965;50.660;13.226;2022-12-18T12:52:47;-3.20;99.90
27224;DHT22;14965;50.660;13.226;2022-12-18T12:55:19;-3.20;99.90
27224;DHT22;14965;50.660;13.226;2022-12-18T12:57:54;-3.30;99.90
27224;DHT22;14965;50.660;13.226;2022-12-18T13:00:29;-3.20;99.90
27224;DHT22;14965;50.660;13.226;2022-12-18T13:03:08;-3.20;99.90
27224;DHT22;14965;50.660;13.226;2022-12-18T13:05:43;-3.20;99.90
27224;DHT22;14965;50.660;13.226;2022-12-18T13:08:25;-3.20;99.90
27224;DHT22;14965;50.660;13.226;2022-12-18T13:10:52;-3.20;99.90
27224;DHT22;14965;50.660;13.226;2022-12-18T13:13:20;-3.20;99.90
27224;DHT22;14965;50.660;13.226;2022-12-18T13:15:47;-3.30;99.90
27224;DHT22;14965;50.660;13.226;2022-12-18T13:18:19;-3.30;99.90
27224;DHT22;14965;50.660;13.226;2022-12-18T13:20:47;-3.30;99.90
27224;DHT22;14965;50.660;13.226;2022-12-18T13:23:31;-3.30;99.90
27224;DHT22;14965;50.660;13.226;2022-12-18T13:26:00;-3.30;99.90
27224;DHT22;14965;50.660;13.226;2022-12-18T13:29:03;-3.20;99.90
27224;DHT22;14965;50.660;13.226;2022-12-18T13:34:44;-3.10;99.90
27224;DHT22;14965;50.660;13.226;2022-12-18T13:37:44;-3.10;99.90
27224;DHT22;14965;50.660;13.226;2022-12-18T13:43:24;-3.10;99.90
27224;DHT22;14965;50.660;13.226;2022-12-18T13:46:17;-3.10;99.90
27224;DHT22;14965;50.660;13.226;2022-12-18T13:48:51;-3.10;99.90
27224;DHT22;14965;50.660;13.226;2022-12-18T13:51:21;-3.10;99.90
27224;DHT22;14965;50.660;13.226;2022-12-18T13:53:50;-3.00;99.90
27224;DHT22;14965;50.660;13.226;2022-12-18T13:56:17;-3.10;99.90
27224;DHT22;14965;50.660;13.226;2022-12-18T13:59:10;-3.20;99.90
27224;DHT22;14965;50.660;13.226;2022-12-18T14:01:44;-3.30;99.90
27224;DHT22;14965;50.660;13.226;2022-12-18T14:04:16;-3.30;99.90
27224;DHT22;14965;50.660;13.226;2022-12-18T14:06:47;-3.40;99.90
27224;DHT22;14965;50.660;13.226;2022-12-18T14:09:16;-3.50;99.90
27224;DHT22;14965;50.660;13.226;2022-12-18T14:11:47;-3.60;99.90
27224;DHT22;14965;50.660;13.226;2022-12-18T14:14:17;-3.60;99.90
27224;DHT22;14965;50.660;13.226;2022-12-18T14:16:46;-3.70;99.90
27224;DHT22;14965;50.660;13.226;2022-12-18T14:19:15;-3.80;99.90
27224;DHT22;14965;50.660;13.226;2022-12-18T14:21:46;-3.90;99.90
27224;DHT22;14965;50.660;13.226;2022-12-18T14:24:15;-4.00;99.90
27224;DHT22;14965;50.660;13.226;2022-12-18T14:26:44;-4.10;99.90
27224;DHT22;14965;50.660;13.226;2022-12-18T14:29:34;-4.30;99.90
27224;DHT22;14965;50.660;13.226;2022-12-18T14:32:10;-4.40;99.90
27224;DHT22;14965;50.660;13.226;2022-12-18T14:34:37;-4.70;99.90
27224;DHT22;14965;50.660;13.226;2022-12-18T14:37:04;-4.90;99.90
27224;DHT22;14965;50.660;13.226;2022-12-18T14:39:30;-5.00;99.90
27224;DHT22;14965;50.660;13.226;2022-12-18T14:41:56;-5.00;99.90
27224;DHT22;14965;50.660;13.226;2022-12-18T14:44:22;-5.10;99.90
27224;DHT22;14965;50.660;13.226;2022-12-18T14:46:49;-5.20;99.90
27224;DHT22;14965;50.660;13.226;2022-12-18T14:49:21;-5.30;99.90
27224;DHT22;14965;50.660;13.226;2022-12-18T14:51:53;-5.40;99.90
27224;DHT22;14965;50.660;13.226;2022-12-18T14:54:22;-5.50;99.90
27224;DHT22;14965;50.660;13.226;2022-12-18T14:56:51;-5.50;99.90
27224;DHT22;14965;50.660;13.226;2022-12-18T14:59:24;-5.60;99.90
27224;DHT22;14965;50.660;13.226;2022-12-18T15:01:57;-5.60;99.90
27224;DHT22;14965;50.660;13.226;2022-12-18T15:04:30;-5.70;99.90
27224;DHT22;14965;50.660;13.226;2022-12-18T15:07:13;-5.70;99.90
27224;DHT22;14965;50.660;13.226;2022-12-18T15:09:42;-5.70;99.90
27224;DHT22;14965;50.660;13.226;2022-12-18T15:12:19;-5.70;99.90
27224;DHT22;14965;50.660;13.226;2022-12-18T15:14:51;-5.80;99.90
27224;DHT22;14965;50.660;13.226;2022-12-18T15:17:19;-5.80;99.90
27224;DHT22;14965;50.660;13.226;2022-12-18T15:19:50;-5.80;99.90
27224;DHT22;14965;50.660;13.226;2022-12-18T15:22:24;-5.80;99.90
27224;DHT22;14965;50.660;13.226;2022-12-18T15:24:52;-5.80;99.90
27224;DHT22;14965;50.660;13.226;2022-12-18T15:27:22;-5.80;99.90
27224;DHT22;14965;50.660;13.226;2022-12-18T15:30:01;-5.80;99.90
27224;DHT22;14965;50.660;13.226;2022-12-18T15:32:41;-5.70;99.90
27224;DHT22;14965;50.660;13.226;2022-12-18T15:35:14;-5.70;99.90
27224;DHT22;14965;50.660;13.226;2022-12-18T15:37:43;-5.60;99.90
27224;DHT22;14965;50.660;13.226;2022-12-18T15:40:12;-5.60;99.90
27224;DHT22;14965;50.660;13.226;2022-12-18T15:42:40;-5.60;99.90
27224;DHT22;14965;50.660;13.226;2022-12-18T15:45:10;-5.60;99.90
27224;DHT22;14965;50.660;13.226;2022-12-18T15:47:37;-5.60;99.90